createdAt,value
2017-05-18T00:01:20.905Z,35.90
2017-05-18T00:03:49.240Z,35.90
2017-05-18T00:06:18.269Z,36.00
2017-05-18T00:08:46.581Z,35.80
2017-05-18T00:11:14.868Z,35.90
2017-05-18T00:13:43.144Z,35.90
2017-05-18T00:16:11.460Z,35.90
2017-05-18T00:18:39.750Z,36.60
2017-05-18T00:21:08.069Z,36.10
2017-05-18T00:23:36.352Z,36.00
2017-05-18T00:26:04.629Z,36.10
2017-05-18T00:28:32.938Z,36.20
2017-05-18T00:31:01.254Z,36.30
2017-05-18T00:33:29.538Z,36.60
2017-05-18T00:35:57.821Z,36.80
2017-05-18T00:38:26.141Z,36.50
2017-05-18T00:40:55.177Z,36.70
2017-05-18T00:43:23.466Z,36.80
2017-05-18T00:45:51.780Z,36.80
2017-05-18T00:48:20.807Z,36.80
2017-05-18T00:50:49.100Z,36.90
2017-05-18T00:53:17.448Z,36.80
2017-05-18T00:55:45.722Z,36.90
2017-05-18T00:58:14.101Z,37.00
2017-05-18T01:00:42.484Z,37.10
2017-05-18T01:03:10.771Z,37.30
2017-05-18T01:05:39.084Z,37.30
2017-05-18T01:08:08.104Z,37.90
2017-05-18T01:10:36.377Z,37.30
2017-05-18T01:13:04.687Z,37.40
2017-05-18T01:15:33.068Z,37.50
2017-05-18T01:18:01.343Z,37.50
2017-05-18T01:20:29.725Z,37.90
2017-05-18T01:22:58.000Z,37.80
2017-05-18T01:25:26.312Z,37.90
2017-05-18T01:27:54.661Z,37.80
2017-05-18T01:30:23.037Z,38.10
2017-05-18T01:32:51.345Z,37.70
2017-05-18T01:35:19.687Z,37.80
2017-05-18T01:37:48.078Z,37.80
2017-05-18T01:40:16.379Z,38.10
2017-05-18T01:42:44.676Z,38.10
2017-05-18T01:45:12.961Z,37.90
2017-05-18T01:47:42.004Z,38.10
2017-05-18T01:50:10.371Z,38.00
2017-05-18T01:52:38.649Z,38.10
2017-05-18T01:55:07.038Z,38.00
2017-05-18T01:57:35.417Z,38.00
2017-05-18T02:00:03.688Z,38.00
2017-05-18T02:02:32.064Z,37.90
2017-05-18T02:05:00.341Z,38.10
2017-05-18T02:07:28.723Z,37.90
2017-05-18T02:09:56.996Z,38.30
2017-05-18T02:12:25.267Z,38.50
2017-05-18T02:14:53.573Z,38.50
2017-05-18T02:17:21.928Z,38.70
2017-05-18T02:19:50.201Z,38.80
2017-05-18T02:22:18.508Z,38.70
2017-05-18T02:24:46.788Z,39.00
2017-05-18T02:27:15.064Z,39.30
2017-05-18T02:29:43.384Z,39.30
2017-05-18T02:32:11.740Z,39.20
2017-05-18T02:34:40.020Z,39.20
2017-05-18T02:37:08.331Z,39.40
2017-05-18T02:39:36.681Z,39.40
2017-05-18T02:42:05.061Z,39.70
2017-05-18T02:44:33.359Z,39.90
2017-05-18T02:47:01.687Z,39.70
2017-05-18T02:49:29.988Z,39.80
2017-05-18T02:51:58.368Z,39.80
2017-05-18T02:54:26.744Z,40.00
2017-05-18T02:56:55.013Z,39.80
2017-05-18T02:59:23.316Z,40.00
2017-05-18T03:01:51.632Z,40.10
2017-05-18T03:04:19.955Z,40.30
2017-05-18T03:06:48.537Z,40.20
2017-05-18T03:09:17.122Z,40.20
2017-05-18T03:11:46.420Z,40.20
2017-05-18T03:14:14.797Z,40.40
2017-05-18T03:16:43.073Z,40.90
2017-05-18T03:19:11.343Z,40.90
2017-05-18T03:21:39.644Z,41.30
2017-05-18T03:24:08.001Z,41.20
2017-05-18T03:26:36.380Z,41.30
2017-05-18T03:29:04.680Z,41.60
2017-05-18T03:31:32.956Z,41.80
2017-05-18T03:34:01.416Z,41.90
2017-05-18T03:36:29.810Z,42.10
2017-05-18T03:38:58.189Z,42.30
2017-05-18T03:41:26.519Z,42.50
2017-05-18T03:43:54.796Z,43.20
2017-05-18T03:46:23.080Z,42.90
2017-05-18T03:48:52.231Z,42.90
2017-05-18T03:51:20.508Z,43.00
2017-05-18T03:53:48.781Z,43.10
2017-05-18T03:56:17.468Z,43.20
2017-05-18T03:58:45.776Z,43.30
2017-05-18T04:01:14.059Z,43.20
2017-05-18T04:03:42.428Z,43.30
2017-05-18T04:06:10.842Z,43.50
2017-05-18T04:08:39.118Z,43.60
2017-05-18T04:11:07.387Z,43.20
2017-05-18T04:13:36.832Z,43.60
2017-05-18T04:16:05.117Z,43.60
2017-05-18T04:18:33.395Z,43.60
2017-05-18T04:21:01.700Z,43.80
2017-05-18T04:23:30.049Z,44.00
2017-05-18T04:25:58.323Z,44.30
2017-05-18T04:28:26.745Z,44.20
2017-05-18T04:30:55.023Z,44.40
2017-05-18T04:33:23.298Z,44.50
2017-05-18T04:35:51.635Z,44.60
2017-05-18T04:38:19.953Z,44.90
2017-05-18T04:40:48.226Z,45.00
2017-05-18T04:43:16.536Z,45.00
2017-05-18T04:45:44.803Z,45.10
2017-05-18T04:48:13.076Z,45.10
2017-05-18T04:50:41.384Z,45.50
2017-05-18T04:53:10.404Z,45.20
2017-05-18T04:55:38.681Z,45.20
2017-05-18T04:58:07.391Z,45.10
2017-05-18T05:00:35.672Z,45.00
2017-05-18T05:03:03.948Z,45.00
2017-05-18T05:05:32.324Z,44.80
2017-05-18T05:08:00.709Z,44.60
2017-05-18T05:10:28.977Z,44.60
2017-05-18T05:12:57.360Z,44.70
2017-05-18T05:15:25.632Z,44.70
2017-05-18T05:17:53.925Z,44.80
2017-05-18T05:20:22.396Z,44.90
2017-05-18T05:22:50.773Z,45.30
2017-05-18T05:25:19.047Z,45.60
2017-05-18T05:27:47.354Z,45.60
2017-05-18T05:30:15.631Z,45.90
2017-05-18T05:32:43.992Z,45.90
2017-05-18T05:35:12.294Z,46.10
2017-05-18T05:37:40.673Z,46.20
2017-05-18T05:40:09.005Z,46.60
2017-05-18T05:42:38.025Z,46.60
2017-05-18T05:45:06.312Z,46.40
2017-05-18T05:47:34.650Z,47.50
2017-05-18T05:50:04.076Z,48.00
2017-05-18T05:52:32.381Z,48.30
2017-05-18T05:55:00.762Z,48.50
2017-05-18T05:57:29.118Z,48.80
2017-05-18T05:59:57.420Z,49.30
2017-05-18T06:02:25.696Z,48.40
2017-05-18T06:04:54.012Z,48.20
2017-05-18T06:07:23.036Z,48.60
2017-05-18T06:09:51.313Z,48.00
2017-05-18T06:12:19.612Z,48.20
2017-05-18T06:14:47.891Z,48.30
2017-05-18T06:17:16.275Z,48.60
2017-05-18T06:19:44.662Z,48.90
2017-05-18T06:22:12.996Z,49.00
2017-05-18T06:24:41.305Z,49.50
2017-05-18T06:27:09.697Z,49.50
2017-05-18T06:29:38.006Z,49.60
2017-05-18T06:32:07.021Z,49.60
2017-05-18T06:34:35.292Z,50.10
2017-05-18T06:37:04.436Z,50.10
2017-05-18T06:39:32.813Z,50.30
2017-05-18T06:42:01.137Z,51.00
2017-05-18T06:44:29.820Z,50.40
2017-05-18T06:46:58.096Z,50.80
2017-05-18T06:49:26.476Z,51.00
2017-05-18T06:51:54.782Z,51.50
2017-05-18T06:54:23.057Z,52.10
2017-05-18T06:56:51.416Z,52.40
2017-05-18T06:59:19.894Z,53.30
2017-05-18T07:01:48.270Z,54.10
2017-05-18T07:04:16.548Z,54.10
2017-05-18T07:06:44.928Z,54.20
2017-05-18T07:09:13.281Z,54.20
2017-05-18T07:11:41.557Z,54.10
2017-05-18T07:14:09.858Z,53.30
2017-05-18T07:16:38.136Z,53.70
2017-05-18T07:19:06.407Z,53.00
2017-05-18T07:21:34.715Z,52.90
2017-05-18T07:24:03.732Z,52.50
2017-05-18T07:26:32.035Z,52.10
2017-05-18T07:29:00.335Z,51.60
2017-05-18T07:31:28.636Z,51.90
2017-05-18T07:33:57.677Z,51.00
2017-05-18T07:36:26.064Z,51.70
2017-05-18T07:38:54.332Z,52.20
2017-05-18T07:41:22.645Z,53.00
2017-05-18T07:43:51.002Z,53.50
2017-05-18T07:46:19.369Z,54.50
2017-05-18T07:48:47.684Z,55.20
2017-05-18T07:51:15.952Z,56.60
2017-05-18T07:53:44.332Z,58.80
2017-05-18T07:56:12.683Z,60.10
2017-05-18T07:58:41.073Z,61.60
2017-05-18T08:01:09.385Z,62.10
2017-05-18T08:03:38.437Z,62.80
2017-05-18T08:06:06.712Z,63.90
2017-05-18T08:08:35.402Z,64.20
2017-05-18T08:11:03.676Z,64.00
2017-05-18T08:13:31.948Z,64.50
2017-05-18T08:16:00.247Z,64.60
2017-05-18T08:18:28.522Z,65.30
2017-05-18T08:20:56.828Z,64.00
2017-05-18T08:23:25.840Z,61.20
2017-05-18T08:25:54.111Z,60.60
2017-05-18T08:28:23.156Z,59.10
2017-05-18T08:30:51.429Z,58.90
2017-05-18T08:33:19.725Z,58.10
2017-05-18T08:35:48.032Z,59.40
2017-05-18T08:38:17.043Z,58.70
2017-05-18T08:40:45.327Z,58.30
2017-05-18T08:43:13.638Z,57.10
2017-05-18T08:45:42.011Z,57.30
2017-05-18T08:48:10.283Z,55.00
2017-05-18T08:50:38.663Z,54.90
2017-05-18T08:53:06.940Z,53.70
2017-05-18T08:55:35.216Z,53.10
2017-05-18T08:58:03.544Z,54.70
2017-05-18T09:00:32.560Z,54.90
2017-05-18T09:03:00.842Z,53.30
2017-05-18T09:05:30.179Z,53.70
2017-05-18T09:07:58.560Z,54.60
2017-05-18T09:10:26.840Z,55.30
2017-05-18T09:12:55.150Z,55.10
2017-05-18T09:15:24.181Z,55.30
2017-05-18T09:17:52.512Z,54.90
2017-05-18T09:20:21.528Z,52.10
2017-05-18T09:22:49.820Z,52.70
2017-05-18T09:25:18.160Z,52.10
2017-05-18T09:27:47.175Z,51.60
2017-05-18T09:30:15.463Z,51.80
2017-05-18T09:32:43.798Z,51.50
2017-05-18T09:35:12.856Z,51.70
2017-05-18T09:37:41.178Z,49.90
2017-05-18T09:40:09.484Z,49.50
2017-05-18T09:42:37.759Z,50.30
2017-05-18T09:45:06.074Z,52.20
2017-05-18T09:47:34.373Z,51.10
2017-05-18T09:50:02.722Z,51.70
2017-05-18T09:52:31.049Z,51.90
2017-05-18T09:54:59.337Z,51.00
2017-05-18T09:57:28.386Z,51.20
2017-05-18T09:59:56.713Z,50.20
2017-05-18T10:02:25.080Z,49.80
2017-05-18T10:04:54.117Z,49.20
2017-05-18T10:07:22.832Z,50.20
2017-05-18T10:09:51.153Z,51.10
2017-05-18T10:12:19.474Z,51.50
2017-05-18T10:14:47.770Z,51.50
2017-05-18T10:17:16.085Z,51.00
2017-05-18T10:19:44.364Z,50.80
2017-05-18T10:22:12.684Z,50.50
2017-05-18T10:24:41.014Z,49.60
2017-05-18T10:27:10.048Z,50.00
2017-05-18T10:29:38.333Z,49.20
2017-05-18T10:32:06.712Z,48.20
2017-05-18T10:34:35.092Z,47.90
2017-05-18T10:37:03.469Z,48.70
2017-05-18T10:39:31.857Z,47.70
2017-05-18T10:42:00.240Z,49.50
2017-05-18T10:44:28.713Z,49.10
2017-05-18T10:46:57.087Z,49.50
2017-05-18T10:49:25.431Z,49.70
2017-05-18T10:51:53.715Z,50.50
2017-05-18T10:54:21.997Z,51.20
2017-05-18T10:56:50.313Z,53.60
2017-05-18T10:59:18.596Z,52.80
2017-05-18T11:01:46.877Z,52.70
2017-05-18T11:04:15.346Z,53.40
2017-05-18T11:06:44.022Z,54.90
2017-05-18T11:09:12.394Z,55.40
2017-05-18T11:11:40.821Z,56.50
2017-05-18T11:14:09.164Z,57.70
2017-05-18T11:16:37.526Z,58.10
2017-05-18T11:19:05.975Z,60.20
2017-05-18T11:21:34.468Z,63.80
2017-05-18T11:24:04.056Z,64.70
2017-05-18T11:26:32.979Z,68.20
2017-05-18T11:29:03.091Z,73.40
2017-05-18T11:31:32.293Z,85.30
2017-05-18T11:34:01.568Z,91.90
2017-05-18T11:36:29.879Z,94.20
2017-05-18T11:38:58.936Z,95.10
2017-05-18T11:41:27.225Z,95.80
2017-05-18T11:43:55.513Z,96.60
2017-05-18T11:46:23.827Z,97.20
2017-05-18T11:48:52.112Z,98.60
2017-05-18T11:51:20.394Z,99.90
2017-05-18T11:53:48.712Z,99.90
2017-05-18T11:56:17.007Z,99.90
2017-05-18T11:58:47.713Z,99.90
2017-05-18T12:01:16.496Z,99.90
2017-05-18T12:03:44.788Z,99.90
2017-05-18T12:06:13.076Z,99.90
2017-05-18T12:08:41.390Z,99.90
2017-05-18T12:11:09.699Z,99.90
2017-05-18T12:13:37.992Z,99.90
2017-05-18T12:18:36.320Z,99.90
2017-05-18T12:21:05.391Z,99.90
2017-05-18T12:23:33.707Z,99.90
2017-05-18T12:26:01.992Z,99.90
2017-05-18T12:28:30.275Z,99.90
2017-05-18T12:30:58.584Z,99.90
2017-05-18T12:33:26.868Z,99.90
2017-05-18T12:35:55.161Z,99.90
2017-05-18T12:38:23.479Z,99.90
2017-05-18T12:40:52.158Z,99.90
2017-05-18T12:43:20.450Z,99.90
2017-05-18T12:45:48.759Z,99.90
2017-05-18T12:48:17.121Z,99.90
2017-05-18T12:50:45.404Z,99.90
2017-05-18T12:53:14.463Z,99.90
2017-05-18T12:55:43.488Z,99.90
2017-05-18T12:58:11.773Z,99.90
2017-05-18T13:00:40.089Z,99.90
2017-05-18T13:03:08.377Z,99.90
2017-05-18T13:05:36.665Z,99.90
2017-05-18T13:08:04.989Z,99.90
2017-05-18T13:10:33.300Z,99.90
2017-05-18T13:13:01.842Z,99.90
2017-05-18T13:15:31.709Z,99.90
2017-05-18T13:18:00.333Z,99.90
2017-05-18T13:20:28.914Z,99.90
2017-05-18T13:22:57.690Z,99.90
2017-05-18T13:25:26.275Z,99.90
2017-05-18T13:27:54.831Z,99.90
2017-05-18T13:30:24.100Z,99.90
2017-05-18T13:32:53.740Z,99.90
2017-05-18T13:35:22.259Z,99.90
2017-05-18T13:37:50.694Z,99.90
2017-05-18T13:40:19.458Z,99.90
2017-05-18T13:42:47.736Z,99.90
2017-05-18T13:45:16.769Z,99.90
2017-05-18T13:47:45.097Z,99.90
2017-05-18T13:50:13.385Z,99.90
2017-05-18T13:52:41.664Z,99.90
2017-05-18T13:55:09.983Z,99.90
2017-05-18T13:57:38.274Z,99.90
2017-05-18T14:00:06.566Z,99.90
2017-05-18T14:02:34.880Z,99.90
2017-05-18T14:05:03.909Z,99.90
2017-05-18T14:07:32.193Z,99.90
2017-05-18T14:10:00.537Z,99.90
2017-05-18T14:12:29.560Z,99.90
2017-05-18T14:14:57.845Z,99.90
2017-05-18T14:17:26.191Z,99.90
2017-05-18T14:19:55.218Z,99.90
2017-05-18T14:22:23.496Z,99.90
2017-05-18T14:24:52.513Z,99.90
2017-05-18T14:27:20.797Z,99.90
2017-05-18T14:29:49.076Z,99.90
2017-05-18T14:32:17.417Z,99.90
2017-05-18T14:34:45.692Z,99.90
2017-05-18T14:37:13.980Z,99.90
2017-05-18T14:39:42.299Z,99.90
2017-05-18T14:42:10.652Z,99.90
2017-05-18T14:44:38.940Z,99.90
2017-05-18T14:47:07.257Z,99.90
2017-05-18T14:49:36.280Z,99.90
2017-05-18T14:52:04.555Z,99.90
2017-05-18T14:54:32.864Z,99.90
2017-05-18T14:57:01.237Z,99.90
2017-05-18T14:59:29.552Z,99.90
2017-05-18T15:01:58.589Z,99.90
2017-05-18T15:04:26.904Z,99.90
2017-05-18T15:06:55.185Z,99.90
2017-05-18T15:09:23.528Z,99.90
2017-05-18T15:11:52.008Z,99.90
2017-05-18T15:14:20.393Z,99.90
2017-05-18T15:16:48.681Z,99.90
2017-05-18T15:19:16.981Z,99.90
2017-05-18T15:21:45.261Z,99.90
2017-05-18T15:24:14.416Z,99.90
2017-05-18T15:26:42.695Z,99.90
2017-05-18T15:29:11.077Z,99.90
2017-05-18T15:31:39.392Z,99.90
2017-05-18T15:34:07.667Z,99.90
2017-05-18T15:36:36.861Z,99.90
2017-05-18T15:39:05.213Z,99.90
2017-05-18T15:41:33.693Z,99.90
2017-05-18T15:44:02.056Z,99.90
2017-05-18T15:46:30.342Z,99.90
2017-05-18T15:48:58.804Z,99.90
2017-05-18T15:51:27.115Z,99.90
2017-05-18T15:53:55.462Z,99.90
2017-05-18T15:56:23.772Z,99.90
2017-05-18T15:58:52.056Z,99.90
2017-05-18T16:01:21.084Z,99.90
2017-05-18T16:03:49.395Z,99.90
2017-05-18T16:06:17.712Z,99.90
2017-05-18T16:08:46.768Z,99.90
2017-05-18T16:11:15.149Z,99.90
2017-05-18T16:13:43.449Z,99.90
2017-05-18T16:16:11.725Z,99.90
2017-05-18T16:18:40.078Z,99.90
2017-05-18T16:21:08.365Z,99.90
2017-05-18T16:23:36.645Z,99.90
2017-05-18T16:26:04.969Z,99.90
2017-05-18T16:28:33.271Z,99.90
2017-05-18T16:31:01.553Z,99.90
2017-05-18T16:33:30.049Z,99.90
2017-05-18T16:35:58.327Z,99.90
2017-05-18T16:38:26.704Z,99.90
2017-05-18T16:40:55.076Z,99.90
2017-05-18T16:43:23.387Z,99.90
2017-05-18T16:45:51.664Z,99.90
2017-05-18T16:48:20.746Z,99.90
2017-05-18T16:50:49.027Z,99.90
2017-05-18T16:53:17.306Z,99.90
2017-05-18T16:55:45.871Z,99.90
2017-05-18T16:58:14.457Z,99.90
2017-05-18T17:00:43.248Z,99.90
2017-05-18T17:03:12.081Z,99.90
2017-05-18T17:05:40.659Z,99.90
2017-05-18T17:08:09.346Z,99.90
2017-05-18T17:10:38.543Z,99.90
2017-05-18T17:13:07.436Z,99.90
2017-05-18T17:15:36.130Z,99.90
2017-05-18T17:18:04.716Z,99.90
2017-05-18T17:20:33.299Z,99.90
2017-05-18T17:23:02.088Z,99.90
2017-05-18T17:25:30.460Z,99.90
2017-05-18T17:27:58.753Z,99.90
2017-05-18T17:30:27.144Z,99.90
2017-05-18T17:32:55.461Z,99.90
2017-05-18T17:35:25.315Z,99.90
2017-05-18T17:37:53.628Z,99.90
2017-05-18T17:40:22.692Z,99.90
2017-05-18T17:42:50.980Z,99.90
2017-05-18T17:45:19.292Z,99.90
2017-05-18T17:47:47.571Z,99.90
2017-05-18T17:50:15.856Z,99.90
2017-05-18T17:52:44.189Z,99.90
2017-05-18T17:55:13.496Z,99.90
2017-05-18T17:57:41.800Z,99.90
2017-05-18T18:00:10.875Z,99.90
2017-05-18T18:02:39.333Z,99.90
2017-05-18T18:05:07.653Z,99.20
2017-05-18T18:07:37.671Z,99.20
2017-05-18T18:10:06.007Z,99.70
2017-05-18T18:12:34.374Z,99.10
2017-05-18T18:15:02.760Z,99.90
2017-05-18T18:17:31.040Z,99.90
2017-05-18T18:19:59.396Z,98.50
2017-05-18T18:22:27.693Z,99.30
2017-05-18T18:24:55.979Z,99.50
2017-05-18T18:27:24.431Z,94.30
2017-05-18T18:29:52.805Z,94.40
2017-05-18T18:32:21.207Z,93.70
2017-05-18T18:34:49.621Z,92.80
2017-05-18T18:37:17.904Z,91.40
2017-05-18T18:39:46.188Z,91.90
2017-05-18T18:42:14.504Z,92.40
2017-05-18T18:44:42.815Z,92.80
2017-05-18T18:47:11.111Z,92.10
2017-05-18T18:49:39.432Z,93.30
2017-05-18T18:52:07.728Z,93.80
2017-05-18T18:54:36.748Z,94.00
2017-05-18T18:57:05.051Z,93.50
2017-05-18T18:59:33.347Z,92.70
2017-05-18T19:02:01.992Z,93.40
2017-05-18T19:04:30.273Z,93.80
2017-05-18T19:06:58.553Z,94.30
2017-05-18T19:09:26.885Z,94.40
2017-05-18T19:11:55.173Z,95.00
2017-05-18T19:14:23.456Z,95.00
2017-05-18T19:16:51.792Z,95.60
2017-05-18T19:19:20.074Z,96.00
2017-05-18T19:21:48.376Z,96.20
2017-05-18T19:24:16.696Z,96.60
2017-05-18T19:26:45.025Z,96.70
2017-05-18T19:29:14.058Z,97.00
2017-05-18T19:31:42.343Z,97.10
2017-05-18T19:34:10.752Z,97.40
2017-05-18T19:36:39.040Z,97.70
2017-05-18T19:39:07.329Z,98.00
2017-05-18T19:41:35.665Z,98.30
2017-05-18T19:44:04.695Z,98.40
2017-05-18T19:46:33.720Z,98.60
2017-05-18T19:49:02.052Z,99.40
2017-05-18T19:51:31.079Z,99.60
2017-05-18T19:53:59.673Z,99.80
2017-05-18T19:56:28.097Z,99.90
2017-05-18T19:58:56.380Z,99.90
2017-05-18T20:01:24.668Z,99.90
2017-05-18T20:03:52.999Z,99.90
2017-05-18T20:06:21.293Z,99.90
2017-05-18T20:08:49.589Z,99.90
2017-05-18T20:11:18.668Z,99.90
2017-05-18T20:13:46.960Z,99.90
2017-05-18T20:16:15.245Z,99.90
2017-05-18T20:18:43.818Z,99.90
2017-05-18T20:21:12.108Z,99.90
2017-05-18T20:23:40.473Z,99.90
2017-05-18T20:26:08.808Z,99.90
2017-05-18T20:28:37.093Z,99.90
2017-05-18T20:31:05.386Z,99.90
2017-05-18T20:33:33.708Z,99.90
2017-05-18T20:36:02.030Z,99.90
2017-05-18T20:38:30.316Z,99.90
2017-05-18T20:40:58.676Z,99.90
2017-05-18T20:43:26.959Z,99.90
2017-05-18T20:45:55.336Z,99.90
2017-05-18T20:48:23.723Z,99.90
2017-05-18T20:50:52.103Z,99.90
2017-05-18T20:53:20.420Z,99.90
2017-05-18T20:55:49.488Z,99.90
2017-05-18T20:58:17.776Z,99.90
2017-05-18T21:00:46.813Z,99.90
2017-05-18T21:03:15.525Z,99.90
2017-05-18T21:05:43.904Z,99.90
2017-05-18T21:08:12.188Z,99.90
2017-05-18T21:10:40.528Z,99.90
2017-05-18T21:13:08.840Z,99.90
2017-05-18T21:15:37.171Z,99.90
2017-05-18T21:18:05.502Z,99.90
2017-05-18T21:20:33.831Z,99.90
2017-05-18T21:23:02.208Z,99.90
2017-05-18T21:25:30.808Z,99.90
2017-05-18T21:27:59.169Z,99.90
2017-05-18T21:30:27.451Z,99.90
2017-05-18T21:32:55.925Z,99.90
2017-05-18T21:35:24.205Z,99.90
2017-05-18T21:37:52.483Z,99.90
2017-05-18T21:40:20.840Z,99.90
2017-05-18T21:42:49.124Z,99.90
2017-05-18T21:45:17.416Z,99.90
2017-05-18T21:47:45.740Z,99.90
2017-05-18T21:50:14.804Z,99.90
2017-05-18T21:52:43.105Z,99.90
2017-05-18T21:55:12.260Z,99.90
2017-05-18T21:57:40.638Z,99.90
2017-05-18T22:00:09.047Z,99.90
2017-05-18T22:02:37.602Z,99.90
2017-05-18T22:05:05.990Z,99.90
2017-05-18T22:07:34.272Z,99.90
2017-05-18T22:10:02.688Z,99.90
2017-05-18T22:12:31.717Z,99.90
2017-05-18T22:15:00.004Z,99.90
2017-05-18T22:17:28.428Z,99.90
2017-05-18T22:19:56.721Z,99.90
2017-05-18T22:22:25.752Z,99.90
2017-05-18T22:24:54.284Z,99.90
2017-05-18T22:27:22.642Z,99.90
2017-05-18T22:29:50.932Z,99.90
2017-05-18T22:32:19.399Z,99.90
2017-05-18T22:34:47.692Z,99.90
2017-05-18T22:37:16.059Z,99.90
2017-05-18T22:39:44.435Z,99.90
2017-05-18T22:42:12.719Z,99.90
2017-05-18T22:44:40.995Z,99.90
2017-05-18T22:47:09.369Z,99.90
2017-05-18T22:49:37.656Z,99.90
2017-05-18T22:52:05.944Z,99.90
2017-05-18T22:54:34.304Z,99.90
2017-05-18T22:57:02.595Z,99.90
2017-05-18T22:59:30.880Z,99.90
2017-05-18T23:01:59.237Z,99.90
2017-05-18T23:04:27.592Z,99.90
2017-05-18T23:06:55.877Z,99.90
2017-05-18T23:09:24.368Z,99.90
2017-05-18T23:11:52.648Z,99.90
2017-05-18T23:14:20.935Z,99.90
2017-05-18T23:16:49.608Z,99.90
2017-05-18T23:19:17.890Z,99.90
2017-05-18T23:21:46.269Z,99.90
2017-05-18T23:24:14.678Z,99.90
2017-05-18T23:26:43.030Z,99.90
2017-05-18T23:29:11.320Z,99.90
2017-05-18T23:31:39.651Z,99.90
2017-05-18T23:34:07.962Z,99.90
2017-05-18T23:36:36.336Z,99.90
2017-05-18T23:39:04.663Z,99.90
2017-05-18T23:41:33.680Z,99.90
2017-05-18T23:44:01.969Z,99.90
2017-05-18T23:46:30.470Z,99.90
2017-05-18T23:48:58.756Z,99.90
2017-05-18T23:51:27.032Z,99.90
2017-05-18T23:53:55.365Z,99.90
2017-05-18T23:56:23.691Z,99.90
2017-05-18T23:58:52.056Z,99.90
